createdAt,value
2022-10-19T00:03:37.298Z,28.98
2022-10-19T00:08:43.182Z,31.35
2022-10-19T00:13:46.957Z,23.80
2022-10-19T00:18:50.762Z,26.08
2022-10-19T00:23:55.974Z,25.67
2022-10-19T00:28:59.855Z,22.05
2022-10-19T00:34:03.659Z,23.27
2022-10-19T00:39:11.981Z,23.58
2022-10-19T00:44:53.102Z,23.10
2022-10-19T00:49:57.878Z,25.38
2022-10-19T00:55:03.975Z,19.20
2022-10-19T01:05:12.955Z,21.50
2022-10-19T01:10:18.492Z,23.10
2022-10-19T01:15:32.943Z,13.50
2022-10-19T01:21:03.314Z,20.70
2022-10-19T01:26:19.426Z,24.17
2022-10-19T01:31:29.083Z,24.00
2022-10-19T01:36:38.336Z,27.05
2022-10-19T01:41:49.244Z,22.80
2022-10-19T01:46:57.143Z,23.08
2022-10-19T01:52:03.757Z,23.33
2022-10-19T01:57:08.841Z,24.15
2022-10-19T02:02:14.759Z,25.27
2022-10-19T02:07:20.251Z,25.00
2022-10-19T02:12:25.482Z,21.77
2022-10-19T02:17:33.294Z,24.00
2022-10-19T02:22:37.244Z,22.33
2022-10-19T02:27:41.974Z,23.55
2022-10-19T02:32:47.162Z,23.98
2022-10-19T02:37:50.989Z,23.02
2022-10-19T02:42:57.638Z,21.08
2022-10-19T02:48:05.436Z,23.10
2022-10-19T02:53:09.219Z,28.08
2022-10-19T02:58:12.981Z,25.42
2022-10-19T03:03:18.148Z,25.90
2022-10-19T03:08:21.910Z,22.33
2022-10-19T03:13:25.802Z,29.08
2022-10-19T03:18:30.968Z,23.98
2022-10-19T03:23:34.895Z,23.85
2022-10-19T03:28:38.719Z,30.15
2022-10-19T03:33:43.951Z,29.85
2022-10-19T03:38:47.905Z,25.00
2022-10-19T03:43:51.882Z,27.13
2022-10-19T03:48:57.140Z,29.67
2022-10-19T03:54:02.423Z,20.88
2022-10-19T03:59:07.142Z,27.80
2022-10-19T04:04:15.419Z,30.67
2022-10-19T04:09:20.615Z,33.92
2022-10-19T04:14:32.393Z,28.10
2022-10-19T04:19:44.256Z,23.17
2022-10-19T04:24:48.027Z,26.15
2022-10-19T04:29:51.815Z,32.70
2022-10-19T04:34:56.989Z,32.55
2022-10-19T04:40:00.769Z,39.28
2022-10-19T04:45:04.923Z,32.60
2022-10-19T04:50:10.913Z,29.85
2022-10-19T04:55:14.897Z,28.33
2022-10-19T05:00:18.912Z,33.15
2022-10-19T05:05:24.470Z,26.58
2022-10-19T05:10:28.419Z,33.37
2022-10-19T05:15:32.363Z,28.65
2022-10-19T05:20:37.536Z,29.85
2022-10-19T05:25:41.312Z,27.88
2022-10-19T05:30:48.867Z,30.33
2022-10-19T05:35:54.247Z,30.92
2022-10-19T05:40:58.074Z,34.97
2022-10-19T05:46:04.992Z,34.85
2022-10-19T05:51:13.123Z,35.45
2022-10-19T05:56:18.750Z,29.00
2022-10-19T06:01:22.559Z,36.72
2022-10-19T06:06:28.577Z,44.35
2022-10-19T06:11:35.182Z,38.50
2022-10-19T06:16:39.082Z,32.28
2022-10-19T06:21:46.043Z,42.53
2022-10-19T06:26:49.955Z,38.88
2022-10-19T06:31:54.591Z,45.38
2022-10-19T06:36:59.758Z,33.60
2022-10-19T06:42:03.555Z,29.88
2022-10-19T06:47:07.338Z,34.05
2022-10-19T06:52:12.502Z,30.98
2022-10-19T06:57:16.288Z,30.50
2022-10-19T07:02:20.114Z,33.67
2022-10-19T07:07:25.341Z,27.48
2022-10-19T07:12:29.238Z,35.90
2022-10-19T07:17:33.251Z,24.67
2022-10-19T07:22:38.604Z,30.40
2022-10-19T07:27:42.745Z,24.40
2022-10-19T07:32:47.169Z,28.70
2022-10-19T07:37:52.463Z,26.58
2022-10-19T07:42:56.405Z,20.83
2022-10-19T07:48:00.443Z,23.75
2022-10-19T07:53:05.600Z,23.50
2022-10-19T07:58:09.501Z,18.30
2022-10-19T08:08:39.273Z,19.42
2022-10-19T08:13:43.458Z,19.23
2022-10-19T08:18:47.242Z,18.90
2022-10-19T08:23:52.444Z,18.48
2022-10-19T08:29:00.703Z,18.43
2022-10-19T08:34:04.656Z,23.02
2022-10-19T08:39:12.644Z,14.02
2022-10-19T08:44:31.921Z,14.45
2022-10-19T08:49:35.715Z,15.90
2022-10-19T08:54:44.328Z,15.82
2022-10-19T08:59:52.911Z,13.77
2022-10-19T09:05:01.001Z,17.67
2022-10-19T09:10:16.898Z,17.50
2022-10-19T09:15:22.727Z,14.00
2022-10-19T09:25:35.020Z,14.45
2022-10-19T09:30:40.343Z,13.85
2022-10-19T09:35:46.046Z,19.30
2022-10-19T09:45:58.214Z,18.45
2022-10-19T09:51:04.241Z,11.77
2022-10-19T09:56:10.568Z,14.07
2022-10-19T10:01:41.853Z,16.13
2022-10-19T10:06:49.474Z,17.70
2022-10-19T10:11:56.033Z,11.50
2022-10-19T10:17:03.779Z,16.90
2022-10-19T10:22:25.613Z,14.13
2022-10-19T10:27:35.868Z,17.88
2022-10-19T10:32:47.238Z,13.30
2022-10-19T10:37:52.212Z,11.30
2022-10-19T10:42:59.264Z,15.88
2022-10-19T10:48:16.345Z,13.82
2022-10-19T10:53:47.023Z,11.20
2022-10-19T10:58:57.767Z,9.77
2022-10-19T11:04:05.765Z,16.95
2022-10-19T11:09:16.000Z,11.43
2022-10-19T11:14:29.203Z,14.05
2022-10-19T11:19:36.378Z,12.27
2022-10-19T11:24:48.767Z,12.02
2022-10-19T11:30:04.850Z,11.18
2022-10-19T11:35:21.551Z,13.40
2022-10-19T11:40:31.443Z,11.45
2022-10-19T11:45:43.808Z,12.73
2022-10-19T11:50:54.247Z,9.05
2022-10-19T11:56:06.971Z,14.77
2022-10-19T12:01:20.271Z,11.52
2022-10-19T12:06:27.067Z,10.50
2022-10-19T12:11:39.715Z,11.88
2022-10-19T12:16:46.836Z,12.65
2022-10-19T12:21:51.511Z,12.50
2022-10-19T12:26:56.143Z,12.20
2022-10-19T12:32:02.673Z,8.52
2022-10-19T12:37:11.987Z,10.70
2022-10-19T12:42:21.688Z,14.60
2022-10-19T12:47:27.667Z,14.32
2022-10-19T12:52:44.522Z,19.55
2022-10-19T12:57:50.113Z,10.85
2022-10-19T13:03:02.525Z,13.20
2022-10-19T13:08:10.654Z,12.32
2022-10-19T13:13:55.611Z,10.35
2022-10-19T13:19:05.211Z,10.00
2022-10-19T13:24:25.561Z,11.73
2022-10-19T13:29:40.834Z,15.75
2022-10-19T13:34:46.978Z,13.93
2022-10-19T13:39:51.012Z,9.35
2022-10-19T13:44:56.043Z,8.80
2022-10-19T13:50:21.095Z,13.93
2022-10-19T13:55:52.579Z,9.50
2022-10-19T14:01:09.959Z,11.40
2022-10-19T14:06:24.622Z,10.73
2022-10-19T14:11:33.860Z,11.18
2022-10-19T14:16:47.535Z,13.25
2022-10-19T14:21:52.764Z,15.77
2022-10-19T14:26:56.627Z,13.75
2022-10-19T14:32:01.062Z,14.48
2022-10-19T14:37:06.311Z,11.73
2022-10-19T14:42:11.730Z,17.02
2022-10-19T14:47:21.346Z,10.63
2022-10-19T14:52:29.418Z,16.13
2022-10-19T14:57:37.050Z,15.35
2022-10-19T15:02:44.354Z,10.63
2022-10-19T15:07:49.857Z,17.27
2022-10-19T15:12:58.930Z,15.55
2022-10-19T15:18:05.564Z,19.35
2022-10-19T15:23:39.722Z,18.95
2022-10-19T15:28:43.623Z,21.75
2022-10-19T15:33:51.127Z,19.38
2022-10-19T15:39:17.616Z,15.23
2022-10-19T15:44:33.217Z,15.40
2022-10-19T15:50:00.790Z,18.33
2022-10-19T15:55:06.655Z,19.95
2022-10-19T16:00:14.451Z,24.25
2022-10-19T16:05:18.448Z,23.25
2022-10-19T16:10:25.767Z,21.98
2022-10-19T16:15:29.639Z,22.92
2022-10-19T16:20:33.450Z,24.02
2022-10-19T16:25:38.676Z,23.98
2022-10-19T16:30:42.474Z,22.87
2022-10-19T16:35:46.302Z,29.85
2022-10-19T16:40:51.462Z,22.00
2022-10-19T16:45:55.241Z,21.50
2022-10-19T16:51:21.583Z,26.60
2022-10-19T16:56:28.374Z,31.67
2022-10-19T17:01:33.608Z,30.05
2022-10-19T17:06:37.506Z,27.87
2022-10-19T17:11:42.709Z,27.52
2022-10-19T17:16:46.534Z,37.50
2022-10-19T17:21:50.350Z,27.27
2022-10-19T17:26:55.638Z,29.08
2022-10-19T17:31:59.686Z,23.60
2022-10-19T17:37:03.455Z,28.45
2022-10-19T17:42:08.615Z,31.73
2022-10-19T17:47:12.396Z,24.75
2022-10-19T17:52:16.193Z,29.98
2022-10-19T17:57:21.370Z,25.98
2022-10-19T18:02:25.168Z,32.63
2022-10-19T18:07:29.010Z,29.13
2022-10-19T18:12:34.191Z,31.85
2022-10-19T18:17:38.353Z,31.73
2022-10-19T18:27:52.741Z,28.08
2022-10-19T18:32:56.603Z,26.60
2022-10-19T18:38:00.384Z,30.98
2022-10-19T18:43:05.748Z,27.35
2022-10-19T18:48:09.556Z,24.20
2022-10-19T18:53:14.378Z,28.70
2022-10-19T18:58:19.539Z,25.05
2022-10-19T19:03:25.366Z,25.02
2022-10-19T19:08:29.839Z,25.73
2022-10-19T19:13:35.138Z,38.40
2022-10-19T19:18:38.908Z,45.67
2022-10-19T19:23:42.844Z,37.00
2022-10-19T19:28:50.727Z,42.78
2022-10-19T19:33:55.471Z,33.55
2022-10-19T19:38:59.267Z,36.72
2022-10-19T19:44:04.469Z,33.03
2022-10-19T19:49:08.347Z,39.07
2022-10-19T19:54:13.124Z,25.63
2022-10-19T19:59:18.509Z,25.05
2022-10-19T20:04:22.279Z,18.57
2022-10-19T20:09:29.095Z,16.45
2022-10-19T20:14:34.247Z,20.50
2022-10-19T20:19:38.138Z,17.35
2022-10-19T20:24:42.272Z,14.52
2022-10-19T20:29:47.494Z,12.63
2022-10-19T20:34:51.301Z,17.65
2022-10-19T20:39:55.080Z,13.75
2022-10-19T20:45:00.258Z,16.80
2022-10-19T20:55:12.763Z,16.80
2022-10-19T21:00:18.288Z,12.52
2022-10-19T21:05:22.059Z,14.27
2022-10-19T21:10:25.864Z,19.55
2022-10-19T21:15:31.037Z,14.75
2022-10-19T21:20:34.823Z,17.02
2022-10-19T21:25:38.621Z,24.67
2022-10-19T21:30:43.775Z,12.70
2022-10-19T21:35:47.628Z,15.10
2022-10-19T21:40:51.458Z,14.55
2022-10-19T21:45:56.769Z,10.48
2022-10-19T21:51:00.894Z,8.73
2022-10-19T21:56:04.654Z,8.77
2022-10-19T22:01:09.798Z,8.63
2022-10-19T22:06:14.000Z,9.00
2022-10-19T22:11:17.917Z,7.43
2022-10-19T22:16:23.117Z,7.93
2022-10-19T22:21:29.064Z,9.65
2022-10-19T22:26:34.987Z,11.93
2022-10-19T22:31:40.307Z,9.85
2022-10-19T22:36:44.470Z,9.17
2022-10-19T22:41:48.223Z,8.13
2022-10-19T22:46:53.402Z,7.28
2022-10-19T22:51:57.150Z,6.97
2022-10-19T22:57:00.943Z,5.80
2022-10-19T23:02:06.129Z,5.80
2022-10-19T23:12:18.571Z,7.70
2022-10-19T23:17:23.783Z,4.85
2022-10-19T23:22:27.609Z,5.32
2022-10-19T23:27:31.388Z,4.28
2022-10-19T23:32:36.517Z,5.07
2022-10-19T23:37:40.238Z,7.50
2022-10-19T23:42:44.150Z,8.55
2022-10-19T23:47:49.246Z,5.68
2022-10-19T23:52:52.991Z,6.07
2022-10-19T23:57:56.716Z,6.75
